Time;durP1;ratioP1;P1;durP2;ratioP2;P2;SDS_P1;SDS_P2;PMS_P1;PMS_P2;Temp;Humidity;BMP_temperature;BMP_pressure;BME280_temperature;BME280_humidity;BME280_pressure;Samples;Min_cycle;Max_cycle;Signal;HPM_P1;HPM_P2
2022/03/28 00:00:39;;;;;;;10.20;7.23;;;;;;;;;;5072850;28;20409;-69
2022/03/28 00:03:05;;;;;;;12.43;7.30;;;;;;;;;;5072872;28;20435;-65
2022/03/28 00:05:32;;;;;;;12.13;7.10;;;;;;;;;;5072863;28;20543;-63
2022/03/28 00:07:58;;;;;;;11.53;7.63;;;;;;;;;;5071436;28;20928;-63
2022/03/28 00:10:24;;;;;;;11.33;7.13;;;;;;;;;;5073163;28;20408;-66
2022/03/28 00:12:50;;;;;;;9.30;7.00;;;;;;;;;;5072926;28;20458;-63
2022/03/28 00:15:16;;;;;;;11.10;6.57;;;;;;;;;;5072860;28;20416;-63
2022/03/28 00:17:42;;;;;;;15.00;7.27;;;;;;;;;;5072688;28;20762;-62
2022/03/28 00:20:13;;;;;;;13.17;7.40;;;;;;;;;;5072676;28;20501;-64
2022/03/28 00:22:40;;;;;;;14.17;7.13;;;;;;;;;;5072689;28;20789;-62
2022/03/28 00:25:07;;;;;;;12.80;7.83;;;;;;;;;;5072604;28;20548;-62
2022/03/28 00:27:33;;;;;;;12.17;7.20;;;;;;;;;;5072637;28;20854;-63
2022/03/28 00:29:59;;;;;;;13.17;8.57;;;;;;;;;;5072683;28;20764;-64
2022/03/28 00:32:25;;;;;;;14.73;7.10;;;;;;;;;;5072677;28;20840;-64
2022/03/28 00:34:51;;;;;;;12.67;7.40;;;;;;;;;;5072650;28;20428;-64
2022/03/28 00:37:17;;;;;;;11.40;7.70;;;;;;;;;;5072641;28;20907;-64
2022/03/28 00:39:44;;;;;;;12.90;8.20;;;;;;;;;;5072645;28;20407;-70
2022/03/28 00:42:11;;;;;;;12.67;8.37;;;;;;;;;;5072401;28;20733;-70
2022/03/28 00:44:37;;;;;;;15.13;7.70;;;;;;;;;;5072374;28;20456;-70
2022/03/28 00:47:03;;;;;;;13.57;8.53;;;;;;;;;;5071228;28;20908;-68
2022/03/28 00:49:29;;;;;;;16.60;8.53;;;;;;;;;;5072462;28;20409;-70
2022/03/28 00:51:55;;;;;;;14.50;7.93;;;;;;;;;;5072375;28;20478;-68
2022/03/28 00:54:22;;;;;;;13.43;8.17;;;;;;;;;;5072423;28;20405;-70
2022/03/28 00:56:48;;;;;;;12.37;7.00;;;;;;;;;;5072445;28;20420;-70
2022/03/28 00:59:15;;;;;;;17.20;7.87;;;;;;;;;;5072342;28;20396;-70
2022/03/28 01:01:42;;;;;;;12.17;7.13;;;;;;;;;;5072225;28;20412;-63
2022/03/28 01:04:09;;;;;;;13.50;7.13;;;;;;;;;;5072149;28;20561;-63
2022/03/28 01:06:38;;;;;;;16.23;7.13;;;;;;;;;;5072840;28;20405;-67
2022/03/28 01:09:04;;;;;;;13.27;9.73;;;;;;;;;;5075783;28;20472;-63
2022/03/28 01:11:34;;;;;;;13.47;7.90;;;;;;;;;;5076049;28;20886;-62
2022/03/28 01:14:01;;;;;;;14.50;8.53;;;;;;;;;;5075936;28;20482;-62
2022/03/28 01:16:30;;;;;;;14.50;7.77;;;;;;;;;;5075924;28;20417;-63
2022/03/28 01:18:56;;;;;;;12.10;7.53;;;;;;;;;;5075799;28;20415;-62
2022/03/28 01:21:22;;;;;;;18.00;9.00;;;;;;;;;;5075765;28;20400;-62
2022/03/28 01:23:48;;;;;;;15.17;9.00;;;;;;;;;;5075798;28;20448;-63
2022/03/28 01:26:14;;;;;;;15.33;8.37;;;;;;;;;;5075603;28;20525;-63
2022/03/28 01:28:41;;;;;;;14.23;8.80;;;;;;;;;;5075517;28;20405;-63
2022/03/28 01:31:08;;;;;;;12.20;8.57;;;;;;;;;;5075510;28;20443;-66
2022/03/28 01:33:35;;;;;;;16.87;8.10;;;;;;;;;;5075535;28;20494;-65
2022/03/28 01:36:01;;;;;;;12.57;7.90;;;;;;;;;;5075653;28;20401;-63
2022/03/28 01:38:27;;;;;;;12.20;7.97;;;;;;;;;;5075439;28;20448;-64
2022/03/28 01:40:54;;;;;;;14.70;7.50;;;;;;;;;;5075391;28;20412;-64
2022/03/28 01:43:20;;;;;;;14.63;8.50;;;;;;;;;;5075511;28;20393;-63
2022/03/28 01:45:46;;;;;;;19.67;9.43;;;;;;;;;;5075205;28;20468;-63
2022/03/28 01:48:13;;;;;;;12.70;7.20;;;;;;;;;;5075177;28;20409;-63
2022/03/28 01:50:39;;;;;;;14.83;7.23;;;;;;;;;;5075245;28;20416;-64
2022/03/28 01:53:05;;;;;;;10.70;7.50;;;;;;;;;;5075196;28;20397;-64
2022/03/28 01:55:32;;;;;;;13.70;8.20;;;;;;;;;;5075178;28;20892;-63
2022/03/28 01:57:58;;;;;;;13.40;8.37;;;;;;;;;;5074850;28;20419;-63
2022/03/28 02:00:25;;;;;;;15.17;7.87;;;;;;;;;;5075039;28;20431;-65
2022/03/28 02:02:52;;;;;;;12.90;7.60;;;;;;;;;;5074816;28;20895;-62
2022/03/28 02:05:18;;;;;;;14.27;7.73;;;;;;;;;;5074980;28;20975;-62
2022/03/28 02:07:46;;;;;;;12.00;8.00;;;;;;;;;;5074935;28;20445;-64
2022/03/28 02:10:14;;;;;;;13.17;8.20;;;;;;;;;;5073516;28;20547;-62
2022/03/28 02:12:41;;;;;;;13.90;9.00;;;;;;;;;;5074841;28;20516;-62
2022/03/28 02:15:07;;;;;;;12.23;7.60;;;;;;;;;;5074824;28;20762;-63
2022/03/28 02:17:39;;;;;;;12.57;8.07;;;;;;;;;;5073548;28;20409;-62
2022/03/28 02:20:06;;;;;;;13.60;7.60;;;;;;;;;;5074245;28;20462;-63
2022/03/28 02:22:33;;;;;;;15.13;7.77;;;;;;;;;;5074588;28;20413;-65
2022/03/28 02:24:59;;;;;;;14.27;8.90;;;;;;;;;;5074575;28;20480;-63
2022/03/28 02:27:25;;;;;;;13.03;7.90;;;;;;;;;;5074433;28;20408;-66
2022/03/28 02:29:51;;;;;;;11.83;7.67;;;;;;;;;;5073291;28;20456;-63
2022/03/28 02:32:17;;;;;;;13.47;9.00;;;;;;;;;;5074258;28;20424;-63
2022/03/28 02:34:43;;;;;;;12.10;8.03;;;;;;;;;;5074287;28;20508;-63
2022/03/28 02:37:09;;;;;;;13.40;7.47;;;;;;;;;;5074273;28;20907;-64
2022/03/28 02:39:35;;;;;;;12.30;8.03;;;;;;;;;;5073024;28;20425;-64
2022/03/28 02:42:01;;;;;;;12.13;8.30;;;;;;;;;;5074173;28;20734;-63
2022/03/28 02:44:27;;;;;;;12.63;8.27;;;;;;;;;;5074133;28;20536;-63
2022/03/28 02:46:53;;;;;;;14.73;8.13;;;;;;;;;;5074207;28;20408;-63
2022/03/28 02:49:19;;;;;;;16.20;9.13;;;;;;;;;;5074141;28;20404;-63
2022/03/28 02:51:46;;;;;;;12.80;8.47;;;;;;;;;;5074033;28;20908;-63
2022/03/28 02:54:12;;;;;;;13.37;7.70;;;;;;;;;;5073992;28;20771;-64
2022/03/28 02:56:38;;;;;;;15.63;8.03;;;;;;;;;;5073915;28;20967;-64
2022/03/28 02:59:04;;;;;;;17.50;8.70;;;;;;;;;;5073833;28;20884;-64
2022/03/28 03:01:30;;;;;;;14.10;8.33;;;;;;;;;;5072516;28;20474;-63
2022/03/28 03:03:56;;;;;;;14.97;10.00;;;;;;;;;;5073578;28;20460;-63
2022/03/28 03:06:23;;;;;;;17.33;9.57;;;;;;;;;;5073891;28;20478;-63
2022/03/28 03:08:50;;;;;;;15.30;9.20;;;;;;;;;;5073527;28;20453;-62
2022/03/28 03:11:16;;;;;;;10.73;7.30;;;;;;;;;;5073688;28;20454;-64
2022/03/28 03:13:43;;;;;;;16.70;8.53;;;;;;;;;;5073653;28;20385;-65
2022/03/28 03:16:09;;;;;;;13.50;7.57;;;;;;;;;;5073736;28;20915;-63
2022/03/28 03:18:35;;;;;;;14.33;8.20;;;;;;;;;;5073686;28;20434;-62
2022/03/28 03:21:01;;;;;;;14.60;8.30;;;;;;;;;;5073499;28;20404;-64
2022/03/28 03:23:27;;;;;;;11.40;7.47;;;;;;;;;;5073464;28;20436;-62
2022/03/28 03:25:53;;;;;;;17.50;8.53;;;;;;;;;;5073451;28;20561;-65
2022/03/28 03:28:20;;;;;;;12.07;8.20;;;;;;;;;;5073269;28;20520;-62
2022/03/28 03:30:46;;;;;;;13.53;8.50;;;;;;;;;;5072656;28;20538;-62
2022/03/28 03:33:12;;;;;;;13.53;8.83;;;;;;;;;;5073288;28;20424;-62
2022/03/28 03:35:38;;;;;;;23.40;8.77;;;;;;;;;;5073407;28;20420;-62
2022/03/28 03:38:04;;;;;;;15.77;8.00;;;;;;;;;;5073183;28;20474;-63
2022/03/28 03:40:30;;;;;;;15.37;8.57;;;;;;;;;;5072999;28;20412;-62
2022/03/28 03:42:57;;;;;;;13.90;8.30;;;;;;;;;;5073266;28;20409;-63
2022/03/28 03:45:23;;;;;;;16.63;8.60;;;;;;;;;;5073141;28;20575;-62
2022/03/28 03:47:49;;;;;;;15.13;8.43;;;;;;;;;;5073166;28;20485;-63
2022/03/28 03:50:14;;;;;;;16.83;8.10;;;;;;;;;;5073045;28;20416;-64
2022/03/28 03:52:40;;;;;;;13.13;8.20;;;;;;;;;;5073002;28;20752;-66
2022/03/28 03:55:07;;;;;;;13.53;8.20;;;;;;;;;;5073109;28;20470;-63
2022/03/28 03:57:33;;;;;;;15.73;9.13;;;;;;;;;;5072979;28;20474;-65
2022/03/28 03:59:59;;;;;;;13.47;7.73;;;;;;;;;;5072897;28;20413;-63
2022/03/28 04:02:25;;;;;;;14.17;8.60;;;;;;;;;;5072980;28;20960;-62
2022/03/28 04:04:51;;;;;;;14.37;8.30;;;;;;;;;;5072809;28;20476;-62
2022/03/28 04:07:17;;;;;;;13.40;8.00;;;;;;;;;;5072748;28;20938;-62
2022/03/28 04:09:43;;;;;;;13.07;8.40;;;;;;;;;;5072571;28;20464;-62
2022/03/28 04:12:11;;;;;;;12.50;7.97;;;;;;;;;;5071505;28;20412;-68
2022/03/28 04:14:37;;;;;;;17.60;9.10;;;;;;;;;;5072928;28;20416;-68
2022/03/28 04:17:03;;;;;;;12.53;7.93;;;;;;;;;;5072666;28;20428;-66
2022/03/28 04:19:30;;;;;;;17.67;9.57;;;;;;;;;;5072860;28;20487;-69
2022/03/28 04:21:56;;;;;;;14.93;7.80;;;;;;;;;;5072752;28;20757;-68
2022/03/28 04:24:22;;;;;;;16.60;8.23;;;;;;;;;;5072559;28;20463;-68
2022/03/28 04:26:48;;;;;;;13.57;8.70;;;;;;;;;;5072590;28;20403;-69
2022/03/28 04:29:14;;;;;;;14.20;7.83;;;;;;;;;;5072629;28;20822;-66
2022/03/28 04:31:40;;;;;;;19.03;8.47;;;;;;;;;;5072713;28;20812;-68
2022/03/28 04:34:09;;;;;;;17.67;10.00;;;;;;;;;;5072433;28;20447;-68
2022/03/28 04:36:37;;;;;;;14.53;7.50;;;;;;;;;;5071218;28;20842;-69
2022/03/28 04:39:04;;;;;;;13.63;8.30;;;;;;;;;;5072318;28;20955;-66
2022/03/28 04:41:30;;;;;;;17.73;7.97;;;;;;;;;;5072976;28;20416;-67
2022/03/28 04:43:57;;;;;;;18.40;8.83;;;;;;;;;;5076520;28;20413;-68
2022/03/28 04:46:23;;;;;;;13.73;8.57;;;;;;;;;;5076531;28;20432;-66
2022/03/28 04:48:49;;;;;;;16.20;9.20;;;;;;;;;;5076516;28;20912;-69
2022/03/28 04:51:15;;;;;;;17.27;8.97;;;;;;;;;;5076397;28;20405;-68
2022/03/28 04:53:41;;;;;;;12.40;8.57;;;;;;;;;;5076569;28;20409;-69
2022/03/28 04:56:07;;;;;;;16.80;9.40;;;;;;;;;;5076266;28;20943;-65
2022/03/28 04:58:33;;;;;;;18.53;9.43;;;;;;;;;;5076243;28;20401;-64
2022/03/28 05:00:59;;;;;;;13.40;8.00;;;;;;;;;;5075069;28;20416;-64
2022/03/28 05:03:25;;;;;;;16.80;9.13;;;;;;;;;;5076281;28;20475;-63
2022/03/28 05:05:51;;;;;;;17.10;9.23;;;;;;;;;;5076135;28;20500;-64
2022/03/28 05:08:19;;;;;;;13.53;8.13;;;;;;;;;;5076097;28;20444;-63
2022/03/28 05:10:45;;;;;;;18.33;8.53;;;;;;;;;;5076197;28;20416;-63
2022/03/28 05:13:11;;;;;;;13.13;8.10;;;;;;;;;;5074904;28;20429;-64
2022/03/28 05:15:37;;;;;;;17.47;8.47;;;;;;;;;;5076149;28;20430;-64
2022/03/28 05:18:03;;;;;;;19.70;8.30;;;;;;;;;;5075932;28;20499;-64
2022/03/28 05:20:29;;;;;;;15.47;8.73;;;;;;;;;;5076021;28;20412;-65
2022/03/28 05:22:55;;;;;;;14.43;7.97;;;;;;;;;;5076043;28;20526;-65
2022/03/28 05:25:21;;;;;;;22.03;9.63;;;;;;;;;;5075925;28;20544;-64
2022/03/28 05:27:48;;;;;;;20.10;10.60;;;;;;;;;;5074718;28;20771;-64
2022/03/28 05:30:15;;;;;;;16.27;8.97;;;;;;;;;;5075961;28;20408;-63
2022/03/28 05:32:42;;;;;;;13.63;8.73;;;;;;;;;;5075991;28;20440;-65
2022/03/28 05:35:08;;;;;;;14.53;9.40;;;;;;;;;;5074593;28;20437;-65
2022/03/28 05:37:35;;;;;;;17.10;8.63;;;;;;;;;;5075601;28;20895;-67
2022/03/28 05:40:02;;;;;;;14.57;9.43;;;;;;;;;;5075626;28;20404;-66
2022/03/28 05:42:28;;;;;;;14.90;8.80;;;;;;;;;;5075730;28;20458;-67
2022/03/28 05:44:54;;;;;;;17.07;8.60;;;;;;;;;;5075609;28;20468;-67
2022/03/28 05:47:20;;;;;;;12.87;8.60;;;;;;;;;;5075565;28;20492;-67
2022/03/28 05:49:46;;;;;;;17.63;8.80;;;;;;;;;;5075427;28;20401;-66
2022/03/28 05:52:12;;;;;;;15.90;8.80;;;;;;;;;;5075604;28;20385;-67
2022/03/28 05:54:38;;;;;;;15.73;9.03;;;;;;;;;;5074726;28;20516;-66
2022/03/28 05:57:05;;;;;;;18.40;8.87;;;;;;;;;;5075523;28;20575;-63
2022/03/28 05:59:31;;;;;;;18.93;9.37;;;;;;;;;;5075375;28;20488;-65
2022/03/28 06:01:57;;;;;;;20.00;8.53;;;;;;;;;;5075388;28;20415;-66
2022/03/28 06:04:23;;;;;;;17.40;9.87;;;;;;;;;;5073803;28;20963;-63
2022/03/28 06:06:50;;;;;;;20.50;9.00;;;;;;;;;;5073861;28;20421;-64
2022/03/28 06:09:16;;;;;;;18.60;10.47;;;;;;;;;;5074876;28;20467;-67
2022/03/28 06:11:42;;;;;;;19.00;10.70;;;;;;;;;;5075097;28;20405;-68
2022/03/28 06:14:09;;;;;;;16.73;9.10;;;;;;;;;;5074972;28;21112;-66
2022/03/28 06:16:35;;;;;;;18.13;9.23;;;;;;;;;;5074983;28;20412;-68
2022/03/28 06:19:01;;;;;;;17.47;9.90;;;;;;;;;;5074963;28;20409;-64
2022/03/28 06:21:30;;;;;;;15.67;9.10;;;;;;;;;;5074931;28;20486;-69
2022/03/28 06:23:57;;;;;;;15.20;9.50;;;;;;;;;;5074882;28;20400;-67
2022/03/28 06:26:23;;;;;;;20.53;9.93;;;;;;;;;;5074844;28;20450;-65
2022/03/28 06:28:49;;;;;;;19.13;9.53;;;;;;;;;;5074778;28;20412;-65
2022/03/28 06:31:15;;;;;;;21.00;9.70;;;;;;;;;;5074803;28;20401;-67
2022/03/28 06:33:41;;;;;;;19.40;10.00;;;;;;;;;;5074633;28;20429;-66
2022/03/28 06:36:08;;;;;;;19.37;10.33;;;;;;;;;;5074821;28;20892;-68
2022/03/28 06:38:34;;;;;;;21.30;10.60;;;;;;;;;;5074302;28;20884;-65
2022/03/28 06:41:00;;;;;;;22.67;10.67;;;;;;;;;;5074585;28;20787;-68
2022/03/28 06:43:26;;;;;;;20.63;10.40;;;;;;;;;;5074565;28;20407;-68
2022/03/28 06:45:52;;;;;;;16.67;10.07;;;;;;;;;;5074351;28;20527;-69
2022/03/28 06:48:19;;;;;;;20.47;11.07;;;;;;;;;;5074441;28;20995;-71
2022/03/28 06:50:45;;;;;;;16.87;9.63;;;;;;;;;;5074438;28;20934;-68
2022/03/28 06:53:11;;;;;;;26.50;10.50;;;;;;;;;;5074527;28;20405;-65
2022/03/28 06:55:37;;;;;;;21.00;11.70;;;;;;;;;;5074457;28;20408;-66
2022/03/28 06:58:04;;;;;;;21.07;11.03;;;;;;;;;;5074376;28;20499;-69
2022/03/28 07:00:30;;;;;;;21.47;10.43;;;;;;;;;;5073000;28;20961;-71
2022/03/28 07:02:56;;;;;;;19.40;11.17;;;;;;;;;;5074397;28;20888;-72
2022/03/28 07:05:22;;;;;;;17.07;11.33;;;;;;;;;;5073976;28;20526;-65
2022/03/28 07:07:49;;;;;;;19.13;10.17;;;;;;;;;;5073242;28;20416;-71
2022/03/28 07:10:17;;;;;;;22.60;10.00;;;;;;;;;;5074191;28;20433;-71
2022/03/28 07:12:43;;;;;;;15.97;10.07;;;;;;;;;;5073901;28;20408;-68
2022/03/28 07:15:10;;;;;;;17.07;10.90;;;;;;;;;;5073903;28;20458;-70
2022/03/28 07:17:45;;;;;;;17.73;11.20;;;;;;;;;;5073802;28;20409;-71
2022/03/28 07:20:11;;;;;;;17.63;11.70;;;;;;;;;;5073768;28;20420;-69
2022/03/28 07:22:37;;;;;;;27.47;11.47;;;;;;;;;;5073784;28;20836;-69
2022/03/28 07:25:04;;;;;;;19.93;11.33;;;;;;;;;;5073744;28;20995;-69
2022/03/28 07:27:30;;;;;;;21.83;11.80;;;;;;;;;;5073729;28;20761;-69
2022/03/28 07:29:57;;;;;;;21.10;12.70;;;;;;;;;;5073716;28;20400;-70
2022/03/28 07:32:23;;;;;;;18.30;11.43;;;;;;;;;;5072191;28;20404;-69
2022/03/28 07:34:50;;;;;;;19.27;12.13;;;;;;;;;;5073766;28;20440;-69
2022/03/28 07:37:16;;;;;;;26.17;12.80;;;;;;;;;;5073527;28;20417;-68
2022/03/28 07:39:42;;;;;;;24.50;11.70;;;;;;;;;;5073504;28;20413;-71
2022/03/28 07:42:09;;;;;;;20.37;12.43;;;;;;;;;;5073479;28;20880;-65
2022/03/28 07:44:35;;;;;;;24.10;13.20;;;;;;;;;;5073355;28;20559;-66
2022/03/28 07:47:03;;;;;;;23.57;12.23;;;;;;;;;;5073368;28;20519;-65
2022/03/28 07:49:30;;;;;;;21.67;12.07;;;;;;;;;;5073287;28;20756;-68
2022/03/28 07:51:56;;;;;;;20.10;12.73;;;;;;;;;;5073439;28;20477;-69
2022/03/28 07:54:22;;;;;;;26.23;13.30;;;;;;;;;;5073367;28;20491;-70
2022/03/28 07:56:48;;;;;;;25.60;13.87;;;;;;;;;;5073302;28;20445;-66
2022/03/28 07:59:14;;;;;;;25.83;14.37;;;;;;;;;;5073255;28;20411;-67
2022/03/28 08:01:41;;;;;;;25.47;13.23;;;;;;;;;;5072240;28;20491;-64
2022/03/28 08:04:07;;;;;;;24.03;12.90;;;;;;;;;;5073356;28;20511;-66
2022/03/28 08:06:33;;;;;;;30.50;13.67;;;;;;;;;;5073203;28;20423;-68
2022/03/28 08:08:59;;;;;;;44.53;14.33;;;;;;;;;;5072868;28;20513;-70
2022/03/28 08:11:25;;;;;;;30.00;15.40;;;;;;;;;;5073181;28;20767;-67
2022/03/28 08:13:51;;;;;;;27.40;13.27;;;;;;;;;;5073163;28;20440;-71
2022/03/28 08:16:17;;;;;;;27.87;13.07;;;;;;;;;;5072495;28;20428;-66
2022/03/28 08:18:43;;;;;;;31.53;13.87;;;;;;;;;;5072991;28;20530;-67
2022/03/28 08:21:09;;;;;;;22.23;12.50;;;;;;;;;;5073125;28;20409;-65
2022/03/28 08:23:36;;;;;;;30.63;13.30;;;;;;;;;;5073145;28;20416;-64
2022/03/28 08:26:04;;;;;;;18.27;12.00;;;;;;;;;;5072806;28;20464;-67
2022/03/28 08:28:30;;;;;;;26.83;14.20;;;;;;;;;;5072992;28;20744;-67
2022/03/28 08:30:56;;;;;;;28.03;13.57;;;;;;;;;;5073044;28;20524;-65
2022/03/28 08:33:22;;;;;;;22.00;13.90;;;;;;;;;;5072990;28;20424;-67
2022/03/28 08:35:47;;;;;;;19.77;12.13;;;;;;;;;;5073421;28;20904;-68
2022/03/28 08:38:15;;;;;;;21.80;12.90;;;;;;;;;;5073444;28;20420;-67
2022/03/28 08:40:44;;;;;;;27.17;13.07;;;;;;;;;;5072937;28;20409;-68
2022/03/28 08:43:10;;;;;;;26.40;13.10;;;;;;;;;;5072868;28;20412;-66
2022/03/28 08:45:39;;;;;;;25.83;12.80;;;;;;;;;;5072798;28;20456;-69
2022/03/28 08:48:10;;;;;;;20.20;12.10;;;;;;;;;;5072842;28;20408;-66
2022/03/28 08:50:39;;;;;;;28.43;12.90;;;;;;;;;;5072723;28;20412;-68
2022/03/28 08:53:06;;;;;;;23.43;12.27;;;;;;;;;;5072681;28;20403;-70
2022/03/28 08:55:33;;;;;;;24.10;13.47;;;;;;;;;;5072620;28;20424;-66
2022/03/28 08:57:59;;;;;;;22.97;12.80;;;;;;;;;;5072643;28;20416;-65
2022/03/28 09:00:25;;;;;;;21.97;13.20;;;;;;;;;;5073025;28;20400;-67
2022/03/28 09:02:55;;;;;;;27.07;13.33;;;;;;;;;;5072727;28;20401;-68
2022/03/28 09:05:29;;;;;;;24.13;14.10;;;;;;;;;;5072542;28;20985;-68
2022/03/28 09:07:58;;;;;;;25.57;13.43;;;;;;;;;;5072505;28;20410;-67
2022/03/28 09:10:25;;;;;;;26.73;13.43;;;;;;;;;;5072626;28;20470;-68
2022/03/28 09:12:57;;;;;;;23.23;14.03;;;;;;;;;;5072587;28;20911;-64
2022/03/28 09:15:24;;;;;;;24.87;14.53;;;;;;;;;;5072532;28;20409;-68
2022/03/28 09:17:59;;;;;;;33.70;14.13;;;;;;;;;;5072402;28;20393;-67
2022/03/28 09:20:25;;;;;;;24.20;13.37;;;;;;;;;;5072411;28;20404;-66
2022/03/28 09:22:51;;;;;;;24.30;13.40;;;;;;;;;;5072381;28;20526;-67
2022/03/28 09:25:18;;;;;;;26.27;13.60;;;;;;;;;;5072097;28;20471;-64
2022/03/28 09:27:49;;;;;;;23.60;14.17;;;;;;;;;;5072205;28;20404;-64
2022/03/28 09:30:20;;;;;;;30.63;14.27;;;;;;;;;;5075616;28;20813;-65
2022/03/28 09:32:47;;;;;;;31.27;13.60;;;;;;;;;;5074773;28;20774;-65
2022/03/28 09:35:21;;;;;;;23.23;13.47;;;;;;;;;;5075752;28;20433;-66
2022/03/28 09:37:49;;;;;;;23.20;13.07;;;;;;;;;;5075823;28;20404;-64
2022/03/28 09:40:25;;;;;;;25.20;13.30;;;;;;;;;;5075637;28;20393;-64
2022/03/28 09:42:51;;;;;;;29.23;13.90;;;;;;;;;;5075784;28;20469;-63
2022/03/28 09:45:21;;;;;;;30.40;15.63;;;;;;;;;;5075648;28;20587;-64
2022/03/28 09:48:01;;;;;;;24.53;13.63;;;;;;;;;;5074302;28;20900;-64
2022/03/28 09:50:28;;;;;;;24.00;13.90;;;;;;;;;;5075727;28;20392;-64
2022/03/28 09:52:54;;;;;;;23.70;13.00;;;;;;;;;;5075641;28;20417;-65
2022/03/28 09:55:20;;;;;;;23.87;13.73;;;;;;;;;;5075585;28;20434;-67
2022/03/28 09:57:46;;;;;;;26.60;15.27;;;;;;;;;;5075528;28;20938;-67
2022/03/28 10:00:13;;;;;;;23.83;14.00;;;;;;;;;;5075442;28;20923;-67
2022/03/28 10:02:39;;;;;;;22.00;14.57;;;;;;;;;;5075455;28;20405;-64
2022/03/28 10:05:06;;;;;;;25.77;14.50;;;;;;;;;;5075408;28;20499;-67
2022/03/28 10:07:32;;;;;;;25.07;14.80;;;;;;;;;;5075344;28;20462;-68
2022/03/28 10:09:59;;;;;;;22.53;14.23;;;;;;;;;;5075355;28;20468;-66
2022/03/28 10:12:26;;;;;;;25.80;15.07;;;;;;;;;;5075211;28;20432;-69
2022/03/28 10:14:57;;;;;;;24.63;14.73;;;;;;;;;;5075052;28;20416;-66
2022/03/28 10:17:24;;;;;;;29.23;15.47;;;;;;;;;;5075196;28;20416;-64
2022/03/28 10:19:51;;;;;;;25.70;14.90;;;;;;;;;;5075076;28;20401;-65
2022/03/28 10:22:19;;;;;;;26.80;14.10;;;;;;;;;;5075052;28;20408;-65
2022/03/28 10:24:46;;;;;;;29.47;16.93;;;;;;;;;;5074853;28;20479;-66
2022/03/28 10:27:13;;;;;;;25.17;14.67;;;;;;;;;;5074942;28;20495;-64
2022/03/28 10:29:40;;;;;;;26.27;14.60;;;;;;;;;;5075225;28;20492;-64
2022/03/28 10:32:14;;;;;;;21.17;14.87;;;;;;;;;;5073822;28;20409;-66
2022/03/28 10:34:49;;;;;;;25.80;15.90;;;;;;;;;;5074944;28;20464;-65
2022/03/28 10:37:27;;;;;;;23.43;15.87;;;;;;;;;;5074603;28;20749;-67
2022/03/28 10:40:12;;;;;;;24.27;15.20;;;;;;;;;;5074209;28;20401;-66
2022/03/28 10:42:40;;;;;;;33.70;15.17;;;;;;;;;;5074613;28;20403;-64
2022/03/28 10:45:11;;;;;;;31.40;15.90;;;;;;;;;;5074530;28;20513;-64
2022/03/28 10:47:41;;;;;;;28.17;16.30;;;;;;;;;;5073179;28;20419;-64
2022/03/28 10:50:09;;;;;;;29.27;15.83;;;;;;;;;;5074521;28;20503;-63
2022/03/28 10:52:35;;;;;;;27.30;15.37;;;;;;;;;;5074410;28;20415;-64
2022/03/28 10:55:11;;;;;;;26.07;14.37;;;;;;;;;;5074248;28;20444;-65
2022/03/28 10:57:38;;;;;;;26.00;17.13;;;;;;;;;;5073992;28;20816;-65
2022/03/28 11:00:12;;;;;;;27.27;15.20;;;;;;;;;;5074248;28;20405;-65
2022/03/28 11:02:39;;;;;;;31.53;16.00;;;;;;;;;;5074245;28;20397;-64
2022/03/28 11:05:09;;;;;;;27.70;15.10;;;;;;;;;;5073844;28;20480;-63
2022/03/28 11:07:35;;;;;;;26.23;14.53;;;;;;;;;;5073977;28;20765;-64
2022/03/28 11:10:03;;;;;;;26.90;14.47;;;;;;;;;;5073874;28;20966;-65
2022/03/28 11:12:32;;;;;;;26.57;14.57;;;;;;;;;;5074041;28;20478;-65
2022/03/28 11:15:24;;;;;;;24.90;14.70;;;;;;;;;;5073863;28;20481;-64
2022/03/28 11:17:54;;;;;;;24.53;13.70;;;;;;;;;;5073797;28;20401;-67
2022/03/28 11:20:22;;;;;;;25.43;14.50;;;;;;;;;;5072192;28;20438;-63
2022/03/28 11:22:57;;;;;;;27.70;15.13;;;;;;;;;;5072299;28;20470;-64
2022/03/28 11:25:29;;;;;;;27.23;14.40;;;;;;;;;;5073239;28;20466;-63
2022/03/28 11:28:05;;;;;;;26.73;14.63;;;;;;;;;;5073443;28;20883;-65
2022/03/28 11:30:31;;;;;;;23.67;14.93;;;;;;;;;;5072519;28;20459;-67
2022/03/28 11:32:58;;;;;;;20.00;12.80;;;;;;;;;;5073678;28;20870;-63
2022/03/28 11:35:25;;;;;;;23.50;14.20;;;;;;;;;;5073478;28;20935;-66
2022/03/28 11:37:51;;;;;;;25.70;14.03;;;;;;;;;;5073608;28;20492;-65
2022/03/28 11:40:18;;;;;;;25.03;14.10;;;;;;;;;;5073234;28;20898;-68
2022/03/28 11:42:49;;;;;;;25.50;14.40;;;;;;;;;;5073575;28;20415;-64
2022/03/28 11:45:18;;;;;;;27.13;14.40;;;;;;;;;;5073302;28;20487;-66
2022/03/28 11:47:54;;;;;;;26.70;13.70;;;;;;;;;;5073505;28;20414;-63
2022/03/28 11:50:20;;;;;;;23.50;14.80;;;;;;;;;;5073474;28;20561;-66
2022/03/28 11:52:52;;;;;;;22.87;15.00;;;;;;;;;;5072760;28;20397;-65
2022/03/28 11:55:24;;;;;;;22.40;13.83;;;;;;;;;;5073229;28;20582;-64
2022/03/28 12:00:36;;;;;;;22.90;15.37;;;;;;;;;;5073035;28;20462;-63
2022/03/28 12:03:05;;;;;;;28.60;14.40;;;;;;;;;;5073272;28;20930;-66
2022/03/28 12:05:33;;;;;;;25.57;14.97;;;;;;;;;;5073197;28;20467;-66
2022/03/28 12:08:00;;;;;;;20.30;13.77;;;;;;;;;;5073030;28;20511;-66
2022/03/28 12:10:26;;;;;;;25.57;14.50;;;;;;;;;;5073317;28;20432;-64
2022/03/28 12:12:52;;;;;;;29.43;15.10;;;;;;;;;;5073065;28;20861;-67
2022/03/28 12:15:29;;;;;;;28.20;14.90;;;;;;;;;;5073112;28;20400;-65
2022/03/28 12:17:58;;;;;;;29.73;15.03;;;;;;;;;;5072978;28;20478;-70
2022/03/28 12:20:25;;;;;;;26.50;14.63;;;;;;;;;;5073059;28;20397;-66
2022/03/28 12:22:51;;;;;;;20.27;13.70;;;;;;;;;;5073099;28;20400;-65
2022/03/28 12:25:25;;;;;;;34.27;15.33;;;;;;;;;;5073089;28;20475;-63
2022/03/28 12:27:53;;;;;;;24.57;14.87;;;;;;;;;;5073363;28;20724;-68
2022/03/28 12:30:19;;;;;;;24.10;14.67;;;;;;;;;;5073157;28;20404;-64
2022/03/28 12:32:45;;;;;;;20.23;13.90;;;;;;;;;;5073299;28;20416;-66
2022/03/28 12:35:11;;;;;;;27.30;15.00;;;;;;;;;;5072808;28;20482;-66
2022/03/28 12:37:37;;;;;;;26.70;13.60;;;;;;;;;;5073120;28;20400;-66
2022/03/28 12:40:03;;;;;;;23.67;13.57;;;;;;;;;;5073158;28;20507;-65
2022/03/28 12:42:29;;;;;;;23.30;13.20;;;;;;;;;;5072944;28;20554;-64
2022/03/28 12:44:56;;;;;;;26.57;13.63;;;;;;;;;;5072769;28;21049;-66
2022/03/28 12:47:27;;;;;;;24.30;14.80;;;;;;;;;;5072610;28;20451;-64
2022/03/28 12:49:54;;;;;;;23.53;14.20;;;;;;;;;;5072894;28;20497;-65
2022/03/28 12:52:24;;;;;;;25.13;14.27;;;;;;;;;;5072666;28;20416;-66
2022/03/28 12:54:56;;;;;;;22.10;13.97;;;;;;;;;;5072722;28;20581;-64
2022/03/28 12:57:27;;;;;;;23.63;13.50;;;;;;;;;;5072693;28;20405;-67
2022/03/28 12:59:54;;;;;;;26.20;14.47;;;;;;;;;;5072418;28;20752;-65
2022/03/28 13:02:20;;;;;;;18.37;12.40;;;;;;;;;;5072834;28;20458;-67
2022/03/28 13:04:49;;;;;;;24.00;12.97;;;;;;;;;;5076330;28;20475;-64
2022/03/28 13:07:19;;;;;;;21.27;12.10;;;;;;;;;;5076416;28;20816;-65
2022/03/28 13:10:01;;;;;;;18.97;11.37;;;;;;;;;;5076243;28;20466;-65
2022/03/28 13:12:34;;;;;;;19.73;12.77;;;;;;;;;;5076366;28;20421;-64
2022/03/28 13:15:01;;;;;;;25.37;12.83;;;;;;;;;;5076407;28;20400;-65
2022/03/28 13:17:27;;;;;;;22.27;13.27;;;;;;;;;;5076211;28;20957;-67
2022/03/28 13:19:57;;;;;;;22.17;13.23;;;;;;;;;;5076065;28;20412;-65
2022/03/28 13:22:27;;;;;;;19.03;12.60;;;;;;;;;;5075989;28;20424;-66
2022/03/28 13:25:17;;;;;;;17.00;11.73;;;;;;;;;;5075908;28;20806;-65
2022/03/28 13:28:08;;;;;;;20.73;12.13;;;;;;;;;;5076139;28;20466;-64
2022/03/28 13:30:56;;;;;;;21.17;12.30;;;;;;;;;;5076134;28;20722;-64
2022/03/28 13:33:23;;;;;;;19.73;12.77;;;;;;;;;;5075878;28;20421;-63
2022/03/28 13:35:49;;;;;;;20.63;11.73;;;;;;;;;;5075890;28;20396;-64
2022/03/28 13:38:17;;;;;;;19.17;11.50;;;;;;;;;;5075787;28;20396;-65
2022/03/28 13:40:44;;;;;;;21.63;12.83;;;;;;;;;;5075650;28;20892;-64
2022/03/28 13:43:11;;;;;;;16.43;10.30;;;;;;;;;;5075575;28;20425;-63
2022/03/28 13:45:38;;;;;;;19.30;11.87;;;;;;;;;;5075500;28;20463;-68
2022/03/28 13:48:05;;;;;;;16.40;11.57;;;;;;;;;;5075550;28;20450;-67
2022/03/28 13:50:32;;;;;;;21.10;12.10;;;;;;;;;;5075604;28;20741;-64
2022/03/28 13:52:59;;;;;;;17.33;11.57;;;;;;;;;;5075729;28;20409;-66
2022/03/28 13:55:25;;;;;;;19.70;11.57;;;;;;;;;;5075687;28;20759;-65
2022/03/28 13:57:52;;;;;;;20.60;11.87;;;;;;;;;;5073967;28;20405;-67
2022/03/28 14:00:18;;;;;;;20.53;12.60;;;;;;;;;;5075559;28;20417;-66
2022/03/28 14:02:44;;;;;;;20.17;11.93;;;;;;;;;;5075628;28;20413;-65
2022/03/28 14:05:10;;;;;;;15.90;11.27;;;;;;;;;;5074917;28;20468;-65
2022/03/28 14:07:36;;;;;;;17.07;11.13;;;;;;;;;;5074930;28;20431;-66
2022/03/28 14:10:03;;;;;;;14.67;10.00;;;;;;;;;;5074918;28;20448;-66
2022/03/28 14:12:29;;;;;;;25.10;11.43;;;;;;;;;;5073868;28;20421;-67
2022/03/28 14:14:56;;;;;;;16.80;11.80;;;;;;;;;;5074282;28;20413;-64
2022/03/28 14:17:22;;;;;;;16.67;11.10;;;;;;;;;;5073842;28;20988;-65
2022/03/28 14:19:49;;;;;;;15.30;10.60;;;;;;;;;;5073570;28;20466;-66
2022/03/28 14:22:16;;;;;;;16.43;11.07;;;;;;;;;;5074697;28;20405;-64
2022/03/28 14:24:42;;;;;;;16.57;11.00;;;;;;;;;;5074732;28;21020;-66
2022/03/28 14:27:08;;;;;;;16.83;10.70;;;;;;;;;;5074839;28;20443;-66